الصفحة الرئيسية
METAR-TAF:

METAR-TAF

مطار :

مطار اراد الدولي

أراد, رومانيا

دائرة عرض: 46-12N, خط طول: 021-24E, ارتفاع: 117 متر

مراقبة الطقس الحالي

تاريخ ووقت الإصدار 26 دقيقة قبل الساعة 06:30UTC
ريح 13 عقدة من الشمال/الشمال الشرقي, الاتجاه يتراوح بين الشمال و الشمال الشرقي
درجة الحرارة 1°درجة مئوية
الرطوبة 51%
ضغط 1023 hPa
الرؤية 10 كم أو أكثر
الغيوم لا تقل 1500 م ولا وجود لمزنة ركامية السحاب الأسود

METAR: LRAR 310630Z 02013KT 350V050 CAVOK 01/M08 Q1023

زمن: 09:56 (06:56 UTC)

توقعات

تاريخ ووقت الإصدار 1ساعة و 56 دقيقة قبل الساعة 05:00UTC
التوقعات صالحة من31 الساعة 06 UTC إلى 31 الساعة 15 UTC
ريح 12 عقدة من الشمال
الرؤية 10 كم أو أكثر
الغيوم لا تقل 1500 م ولا وجود لمزنة ركامية السحاب الأسود
مؤقت
من 31 الساعة 07 UTC إلى 31 الساعة 13 UTC
ريح 20 عقدة من الشمال/الشمال الشرقي تتزايد حتى 30 عقدة

TAF: LRAR 310500Z 3106/3115 01012KT CAVOK TEMPO 3107/3113 02020G30KT

أرصاد الطقس والتوقعات من أكثر من 4000 مطار (تقارير الطقس للمطار METAR والتنبؤ بالطقس بالمطارTAF).

المحطات المتاحة هي النقط الصفراء والحمراء على الخريطة.

حرك المؤشر فوق النقطة لمعرفة اسم المحطة.

ثم انقر لمعرفة أرصاد وتوقعات الطقس.

لتغيير الخارطة: اضغط على الأزرار الخضراء مع رمز الصليب الأسود للتكبير. على الزر الأخضر مع شرطة للتصغير، أو على الأسهم الخضراء للخرائط المجاورة.


METAR-TAF: